sensor_id;sensor_type;location;lat;lon;timestamp;P1;durP1;ratioP1;P2;durP2;ratioP2
18228;SDS011;9239;50.932;3.142;2023-03-20T00:00:27;10.20;;;7.83;;
18228;SDS011;9239;50.932;3.142;2023-03-20T00:02:58;13.17;;;7.73;;
18228;SDS011;9239;50.932;3.142;2023-03-20T00:05:26;12.03;;;8.00;;
18228;SDS011;9239;50.932;3.142;2023-03-20T00:07:54;10.37;;;8.43;;
18228;SDS011;9239;50.932;3.142;2023-03-20T00:10:24;13.80;;;8.30;;
18228;SDS011;9239;50.932;3.142;2023-03-20T00:12:56;12.33;;;7.80;;
18228;SDS011;9239;50.932;3.142;2023-03-20T00:15:28;16.27;;;7.83;;
18228;SDS011;9239;50.932;3.142;2023-03-20T00:17:58;12.60;;;7.93;;
18228;SDS011;9239;50.932;3.142;2023-03-20T00:20:25;12.50;;;8.20;;
18228;SDS011;9239;50.932;3.142;2023-03-20T00:22:52;16.50;;;8.53;;
18228;SDS011;9239;50.932;3.142;2023-03-20T00:25:21;15.93;;;8.90;;
18228;SDS011;9239;50.932;3.142;2023-03-20T00:27:50;13.70;;;8.53;;
18228;SDS011;9239;50.932;3.142;2023-03-20T00:30:18;10.83;;;8.80;;
18228;SDS011;9239;50.932;3.142;2023-03-20T00:32:47;13.73;;;9.57;;
18228;SDS011;9239;50.932;3.142;2023-03-20T00:35:18;18.73;;;9.90;;
18228;SDS011;9239;50.932;3.142;2023-03-20T00:37:51;14.03;;;8.43;;
18228;SDS011;9239;50.932;3.142;2023-03-20T00:40:18;14.50;;;9.23;;
18228;SDS011;9239;50.932;3.142;2023-03-20T00:42:46;14.83;;;9.23;;
18228;SDS011;9239;50.932;3.142;2023-03-20T00:45:16;16.53;;;9.07;;
18228;SDS011;9239;50.932;3.142;2023-03-20T00:47:45;18.73;;;9.23;;
18228;SDS011;9239;50.932;3.142;2023-03-20T00:50:17;14.40;;;9.60;;
18228;SDS011;9239;50.932;3.142;2023-03-20T00:52:47;14.17;;;9.40;;
18228;SDS011;9239;50.932;3.142;2023-03-20T00:55:15;17.87;;;9.67;;
18228;SDS011;9239;50.932;3.142;2023-03-20T00:57:43;16.97;;;10.57;;
18228;SDS011;9239;50.932;3.142;2023-03-20T01:00:19;17.37;;;9.93;;
18228;SDS011;9239;50.932;3.142;2023-03-20T01:02:49;17.50;;;9.77;;
18228;SDS011;9239;50.932;3.142;2023-03-20T01:05:18;19.33;;;9.27;;
18228;SDS011;9239;50.932;3.142;2023-03-20T01:07:47;13.03;;;9.70;;
18228;SDS011;9239;50.932;3.142;2023-03-20T01:10:14;21.87;;;11.67;;
18228;SDS011;9239;50.932;3.142;2023-03-20T01:12:42;16.03;;;9.37;;
18228;SDS011;9239;50.932;3.142;2023-03-20T01:15:17;16.93;;;10.37;;
18228;SDS011;9239;50.932;3.142;2023-03-20T01:17:46;18.87;;;8.97;;
18228;SDS011;9239;50.932;3.142;2023-03-20T01:20:15;12.27;;;9.40;;
18228;SDS011;9239;50.932;3.142;2023-03-20T01:22:45;16.83;;;9.63;;
18228;SDS011;9239;50.932;3.142;2023-03-20T01:25:12;19.17;;;10.00;;
18228;SDS011;9239;50.932;3.142;2023-03-20T01:27:40;14.70;;;10.40;;
18228;SDS011;9239;50.932;3.142;2023-03-20T01:30:14;15.33;;;10.07;;
18228;SDS011;9239;50.932;3.142;2023-03-20T01:32:44;16.87;;;10.47;;
18228;SDS011;9239;50.932;3.142;2023-03-20T01:35:12;13.63;;;9.77;;
18228;SDS011;9239;50.932;3.142;2023-03-20T01:37:40;16.37;;;9.27;;
18228;SDS011;9239;50.932;3.142;2023-03-20T01:40:12;16.40;;;9.50;;
18228;SDS011;9239;50.932;3.142;2023-03-20T01:42:49;19.03;;;10.50;;
18228;SDS011;9239;50.932;3.142;2023-03-20T01:45:18;17.60;;;9.23;;
18228;SDS011;9239;50.932;3.142;2023-03-20T01:47:47;15.00;;;10.67;;
18228;SDS011;9239;50.932;3.142;2023-03-20T01:50:22;16.03;;;10.97;;
18228;SDS011;9239;50.932;3.142;2023-03-20T01:52:53;17.70;;;10.87;;
18228;SDS011;9239;50.932;3.142;2023-03-20T01:55:35;15.60;;;10.33;;
18228;SDS011;9239;50.932;3.142;2023-03-20T01:58:05;18.27;;;9.90;;
18228;SDS011;9239;50.932;3.142;2023-03-20T02:00:33;20.77;;;10.10;;
18228;SDS011;9239;50.932;3.142;2023-03-20T02:03:02;15.13;;;9.87;;
18228;SDS011;9239;50.932;3.142;2023-03-20T02:05:32;15.80;;;9.80;;
18228;SDS011;9239;50.932;3.142;2023-03-20T02:08:04;16.00;;;9.30;;
18228;SDS011;9239;50.932;3.142;2023-03-20T02:10:43;14.83;;;9.27;;
18228;SDS011;9239;50.932;3.142;2023-03-20T02:13:11;17.87;;;9.97;;
18228;SDS011;9239;50.932;3.142;2023-03-20T02:15:53;19.90;;;9.97;;
18228;SDS011;9239;50.932;3.142;2023-03-20T02:18:22;13.53;;;8.90;;
18228;SDS011;9239;50.932;3.142;2023-03-20T02:20:52;13.07;;;9.10;;
18228;SDS011;9239;50.932;3.142;2023-03-20T02:23:51;19.73;;;9.70;;
18228;SDS011;9239;50.932;3.142;2023-03-20T02:26:50;15.17;;;8.53;;
18228;SDS011;9239;50.932;3.142;2023-03-20T02:29:37;15.97;;;8.67;;
18228;SDS011;9239;50.932;3.142;2023-03-20T02:32:34;15.10;;;9.83;;
18228;SDS011;9239;50.932;3.142;2023-03-20T02:38:59;16.43;;;10.03;;
18228;SDS011;9239;50.932;3.142;2023-03-20T02:41:56;18.80;;;9.10;;
18228;SDS011;9239;50.932;3.142;2023-03-20T02:44:31;18.40;;;8.80;;
18228;SDS011;9239;50.932;3.142;2023-03-20T02:47:04;15.63;;;8.33;;
18228;SDS011;9239;50.932;3.142;2023-03-20T02:49:41;19.10;;;9.57;;
18228;SDS011;9239;50.932;3.142;2023-03-20T02:52:17;16.10;;;8.40;;
18228;SDS011;9239;50.932;3.142;2023-03-20T02:54:51;12.80;;;7.47;;
18228;SDS011;9239;50.932;3.142;2023-03-20T02:57:30;20.17;;;9.47;;
18228;SDS011;9239;50.932;3.142;2023-03-20T03:00:07;13.47;;;7.70;;
18228;SDS011;9239;50.932;3.142;2023-03-20T03:02:37;16.63;;;8.13;;
18228;SDS011;9239;50.932;3.142;2023-03-20T03:05:10;14.47;;;8.63;;
18228;SDS011;9239;50.932;3.142;2023-03-20T03:07:40;12.50;;;7.80;;
18228;SDS011;9239;50.932;3.142;2023-03-20T03:10:13;15.70;;;8.90;;
18228;SDS011;9239;50.932;3.142;2023-03-20T03:12:44;16.67;;;8.33;;
18228;SDS011;9239;50.932;3.142;2023-03-20T03:15:15;11.20;;;8.17;;
18228;SDS011;9239;50.932;3.142;2023-03-20T03:17:45;14.27;;;8.50;;
18228;SDS011;9239;50.932;3.142;2023-03-20T03:20:15;12.80;;;8.27;;
18228;SDS011;9239;50.932;3.142;2023-03-20T03:22:47;14.00;;;8.63;;
18228;SDS011;9239;50.932;3.142;2023-03-20T03:25:16;12.97;;;8.40;;
18228;SDS011;9239;50.932;3.142;2023-03-20T03:27:45;16.70;;;8.83;;
18228;SDS011;9239;50.932;3.142;2023-03-20T03:30:19;15.30;;;9.17;;
18228;SDS011;9239;50.932;3.142;2023-03-20T03:32:56;16.60;;;8.33;;
18228;SDS011;9239;50.932;3.142;2023-03-20T03:35:34;13.77;;;8.17;;
18228;SDS011;9239;50.932;3.142;2023-03-20T03:38:02;14.63;;;8.70;;
18228;SDS011;9239;50.932;3.142;2023-03-20T03:40:48;16.30;;;7.80;;
18228;SDS011;9239;50.932;3.142;2023-03-20T03:43:24;15.40;;;9.20;;
18228;SDS011;9239;50.932;3.142;2023-03-20T03:45:56;16.30;;;8.40;;
18228;SDS011;9239;50.932;3.142;2023-03-20T03:48:29;15.73;;;8.73;;
18228;SDS011;9239;50.932;3.142;2023-03-20T03:51:02;12.07;;;8.57;;
18228;SDS011;9239;50.932;3.142;2023-03-20T03:53:33;17.37;;;8.43;;
18228;SDS011;9239;50.932;3.142;2023-03-20T03:56:05;16.30;;;8.03;;
18228;SDS011;9239;50.932;3.142;2023-03-20T03:58:36;13.43;;;8.03;;
18228;SDS011;9239;50.932;3.142;2023-03-20T04:01:06;15.30;;;7.77;;
18228;SDS011;9239;50.932;3.142;2023-03-20T04:03:36;14.90;;;8.40;;
18228;SDS011;9239;50.932;3.142;2023-03-20T04:06:05;14.67;;;8.97;;
18228;SDS011;9239;50.932;3.142;2023-03-20T04:08:38;13.23;;;8.53;;
18228;SDS011;9239;50.932;3.142;2023-03-20T04:11:07;15.80;;;8.63;;
18228;SDS011;9239;50.932;3.142;2023-03-20T04:13:39;17.20;;;7.50;;
18228;SDS011;9239;50.932;3.142;2023-03-20T04:16:07;10.40;;;7.50;;
18228;SDS011;9239;50.932;3.142;2023-03-20T04:18:38;13.93;;;7.20;;
18228;SDS011;9239;50.932;3.142;2023-03-20T04:21:05;10.90;;;7.13;;
18228;SDS011;9239;50.932;3.142;2023-03-20T04:23:32;16.37;;;7.47;;
18228;SDS011;9239;50.932;3.142;2023-03-20T04:25:59;12.30;;;7.50;;
18228;SDS011;9239;50.932;3.142;2023-03-20T04:28:28;17.17;;;8.00;;
18228;SDS011;9239;50.932;3.142;2023-03-20T04:30:56;18.27;;;7.90;;
18228;SDS011;9239;50.932;3.142;2023-03-20T04:33:24;12.20;;;7.30;;
18228;SDS011;9239;50.932;3.142;2023-03-20T04:35:51;19.00;;;8.33;;
18228;SDS011;9239;50.932;3.142;2023-03-20T04:38:18;17.63;;;8.23;;
18228;SDS011;9239;50.932;3.142;2023-03-20T04:40:47;13.30;;;8.67;;
18228;SDS011;9239;50.932;3.142;2023-03-20T04:43:14;14.23;;;8.47;;
18228;SDS011;9239;50.932;3.142;2023-03-20T04:45:43;16.63;;;8.80;;
18228;SDS011;9239;50.932;3.142;2023-03-20T04:48:10;14.70;;;9.50;;
18228;SDS011;9239;50.932;3.142;2023-03-20T04:50:37;17.23;;;8.87;;
18228;SDS011;9239;50.932;3.142;2023-03-20T04:53:04;16.43;;;8.83;;
18228;SDS011;9239;50.932;3.142;2023-03-20T04:55:31;21.57;;;9.90;;
18228;SDS011;9239;50.932;3.142;2023-03-20T04:57:58;15.53;;;8.63;;
18228;SDS011;9239;50.932;3.142;2023-03-20T05:00:25;24.93;;;10.20;;
18228;SDS011;9239;50.932;3.142;2023-03-20T05:02:53;15.97;;;8.33;;
18228;SDS011;9239;50.932;3.142;2023-03-20T05:05:20;16.60;;;7.93;;
18228;SDS011;9239;50.932;3.142;2023-03-20T05:07:47;12.57;;;7.70;;
18228;SDS011;9239;50.932;3.142;2023-03-20T05:10:15;15.63;;;8.17;;
18228;SDS011;9239;50.932;3.142;2023-03-20T05:12:42;15.03;;;8.07;;
18228;SDS011;9239;50.932;3.142;2023-03-20T05:15:09;13.57;;;7.07;;
18228;SDS011;9239;50.932;3.142;2023-03-20T05:17:37;16.17;;;7.80;;
18228;SDS011;9239;50.932;3.142;2023-03-20T05:20:05;17.77;;;8.90;;
18228;SDS011;9239;50.932;3.142;2023-03-20T05:22:33;13.87;;;8.60;;
18228;SDS011;9239;50.932;3.142;2023-03-20T05:25:00;15.17;;;8.43;;
18228;SDS011;9239;50.932;3.142;2023-03-20T05:27:27;12.00;;;6.70;;
18228;SDS011;9239;50.932;3.142;2023-03-20T05:29:54;16.03;;;8.90;;
18228;SDS011;9239;50.932;3.142;2023-03-20T05:32:21;15.27;;;9.47;;
18228;SDS011;9239;50.932;3.142;2023-03-20T05:34:48;9.93;;;8.03;;
18228;SDS011;9239;50.932;3.142;2023-03-20T05:37:16;13.97;;;6.77;;
18228;SDS011;9239;50.932;3.142;2023-03-20T05:39:43;12.47;;;7.00;;
18228;SDS011;9239;50.932;3.142;2023-03-20T05:42:10;12.07;;;7.80;;
18228;SDS011;9239;50.932;3.142;2023-03-20T05:44:37;10.77;;;7.57;;
18228;SDS011;9239;50.932;3.142;2023-03-20T05:47:04;14.23;;;7.40;;
18228;SDS011;9239;50.932;3.142;2023-03-20T05:49:31;13.40;;;6.40;;
18228;SDS011;9239;50.932;3.142;2023-03-20T05:51:58;15.53;;;6.37;;
18228;SDS011;9239;50.932;3.142;2023-03-20T05:54:26;14.50;;;7.33;;
18228;SDS011;9239;50.932;3.142;2023-03-20T05:56:53;9.67;;;6.33;;
18228;SDS011;9239;50.932;3.142;2023-03-20T05:59:20;13.37;;;7.40;;
18228;SDS011;9239;50.932;3.142;2023-03-20T06:01:47;12.87;;;6.47;;
18228;SDS011;9239;50.932;3.142;2023-03-20T06:04:14;9.80;;;6.20;;
18228;SDS011;9239;50.932;3.142;2023-03-20T06:06:41;13.40;;;6.43;;
18228;SDS011;9239;50.932;3.142;2023-03-20T06:09:07;12.20;;;5.97;;
18228;SDS011;9239;50.932;3.142;2023-03-20T06:11:36;12.77;;;6.83;;
18228;SDS011;9239;50.932;3.142;2023-03-20T06:14:02;10.63;;;6.27;;
18228;SDS011;9239;50.932;3.142;2023-03-20T06:16:29;7.03;;;6.00;;
18228;SDS011;9239;50.932;3.142;2023-03-20T06:18:56;16.03;;;7.03;;
18228;SDS011;9239;50.932;3.142;2023-03-20T06:21:23;8.03;;;6.57;;
18228;SDS011;9239;50.932;3.142;2023-03-20T06:23:50;12.77;;;6.00;;
18228;SDS011;9239;50.932;3.142;2023-03-20T06:26:18;10.93;;;6.10;;
18228;SDS011;9239;50.932;3.142;2023-03-20T06:28:46;15.97;;;6.60;;
18228;SDS011;9239;50.932;3.142;2023-03-20T06:31:13;6.63;;;5.67;;
18228;SDS011;9239;50.932;3.142;2023-03-20T06:33:41;11.17;;;5.33;;
18228;SDS011;9239;50.932;3.142;2023-03-20T06:36:08;12.30;;;6.37;;
18228;SDS011;9239;50.932;3.142;2023-03-20T06:38:36;18.60;;;12.17;;
18228;SDS011;9239;50.932;3.142;2023-03-20T06:41:03;18.13;;;6.00;;
18228;SDS011;9239;50.932;3.142;2023-03-20T06:43:31;13.27;;;5.63;;
18228;SDS011;9239;50.932;3.142;2023-03-20T06:45:59;10.03;;;5.80;;
18228;SDS011;9239;50.932;3.142;2023-03-20T06:48:26;15.03;;;6.63;;
18228;SDS011;9239;50.932;3.142;2023-03-20T06:50:53;9.70;;;5.17;;
18228;SDS011;9239;50.932;3.142;2023-03-20T06:53:20;8.97;;;5.13;;
18228;SDS011;9239;50.932;3.142;2023-03-20T06:55:47;11.57;;;5.87;;
18228;SDS011;9239;50.932;3.142;2023-03-20T06:58:15;12.23;;;5.17;;
18228;SDS011;9239;50.932;3.142;2023-03-20T07:00:43;9.53;;;5.47;;
18228;SDS011;9239;50.932;3.142;2023-03-20T07:03:12;11.57;;;5.43;;
18228;SDS011;9239;50.932;3.142;2023-03-20T07:05:39;11.30;;;5.53;;
18228;SDS011;9239;50.932;3.142;2023-03-20T07:08:07;10.27;;;5.33;;
18228;SDS011;9239;50.932;3.142;2023-03-20T07:10:34;7.53;;;4.60;;
18228;SDS011;9239;50.932;3.142;2023-03-20T07:13:01;7.67;;;4.37;;
18228;SDS011;9239;50.932;3.142;2023-03-20T07:15:28;14.87;;;5.17;;
18228;SDS011;9239;50.932;3.142;2023-03-20T07:17:56;9.70;;;4.97;;
18228;SDS011;9239;50.932;3.142;2023-03-20T07:20:24;12.73;;;5.50;;
18228;SDS011;9239;50.932;3.142;2023-03-20T07:22:51;11.13;;;5.13;;
18228;SDS011;9239;50.932;3.142;2023-03-20T07:25:19;10.53;;;4.43;;
18228;SDS011;9239;50.932;3.142;2023-03-20T07:27:46;12.30;;;5.17;;
18228;SDS011;9239;50.932;3.142;2023-03-20T07:30:15;10.80;;;5.80;;
18228;SDS011;9239;50.932;3.142;2023-03-20T07:32:42;8.90;;;5.00;;
18228;SDS011;9239;50.932;3.142;2023-03-20T07:35:09;11.43;;;5.23;;
18228;SDS011;9239;50.932;3.142;2023-03-20T07:37:38;10.00;;;4.83;;
18228;SDS011;9239;50.932;3.142;2023-03-20T07:40:06;8.27;;;4.17;;
18228;SDS011;9239;50.932;3.142;2023-03-20T07:42:34;6.90;;;4.90;;
18228;SDS011;9239;50.932;3.142;2023-03-20T07:45:01;9.57;;;5.17;;
18228;SDS011;9239;50.932;3.142;2023-03-20T07:47:28;11.43;;;5.30;;
18228;SDS011;9239;50.932;3.142;2023-03-20T07:49:55;13.93;;;5.23;;
18228;SDS011;9239;50.932;3.142;2023-03-20T07:52:22;11.03;;;4.67;;
18228;SDS011;9239;50.932;3.142;2023-03-20T07:54:51;12.37;;;5.63;;
18228;SDS011;9239;50.932;3.142;2023-03-20T07:57:18;12.50;;;5.60;;
18228;SDS011;9239;50.932;3.142;2023-03-20T07:59:45;24.67;;;6.53;;
18228;SDS011;9239;50.932;3.142;2023-03-20T08:02:12;12.03;;;5.30;;
18228;SDS011;9239;50.932;3.142;2023-03-20T08:04:40;8.80;;;4.57;;
18228;SDS011;9239;50.932;3.142;2023-03-20T08:07:08;9.00;;;4.97;;
18228;SDS011;9239;50.932;3.142;2023-03-20T08:09:35;14.50;;;5.30;;
18228;SDS011;9239;50.932;3.142;2023-03-20T08:12:03;9.43;;;5.47;;
18228;SDS011;9239;50.932;3.142;2023-03-20T08:14:31;9.43;;;4.83;;
18228;SDS011;9239;50.932;3.142;2023-03-20T08:16:58;8.40;;;5.70;;
18228;SDS011;9239;50.932;3.142;2023-03-20T08:19:26;13.20;;;4.90;;
18228;SDS011;9239;50.932;3.142;2023-03-20T08:21:53;7.80;;;4.60;;
18228;SDS011;9239;50.932;3.142;2023-03-20T08:24:20;7.87;;;4.53;;
18228;SDS011;9239;50.932;3.142;2023-03-20T08:26:47;8.77;;;4.73;;
18228;SDS011;9239;50.932;3.142;2023-03-20T08:29:15;13.83;;;5.90;;
18228;SDS011;9239;50.932;3.142;2023-03-20T08:31:43;9.07;;;5.20;;
18228;SDS011;9239;50.932;3.142;2023-03-20T08:34:10;7.50;;;4.83;;
18228;SDS011;9239;50.932;3.142;2023-03-20T08:36:37;11.97;;;4.73;;
18228;SDS011;9239;50.932;3.142;2023-03-20T08:39:05;7.37;;;4.43;;
18228;SDS011;9239;50.932;3.142;2023-03-20T08:41:32;8.20;;;4.73;;
18228;SDS011;9239;50.932;3.142;2023-03-20T08:43:59;8.57;;;4.13;;
18228;SDS011;9239;50.932;3.142;2023-03-20T08:46:28;6.40;;;4.40;;
18228;SDS011;9239;50.932;3.142;2023-03-20T08:48:55;7.93;;;4.67;;
18228;SDS011;9239;50.932;3.142;2023-03-20T08:51:23;7.73;;;4.73;;
18228;SDS011;9239;50.932;3.142;2023-03-20T08:53:50;5.20;;;4.00;;
18228;SDS011;9239;50.932;3.142;2023-03-20T08:56:17;8.10;;;4.80;;
18228;SDS011;9239;50.932;3.142;2023-03-20T08:58:44;8.10;;;4.53;;
18228;SDS011;9239;50.932;3.142;2023-03-20T09:01:11;9.20;;;4.70;;
18228;SDS011;9239;50.932;3.142;2023-03-20T09:03:42;9.57;;;4.50;;
18228;SDS011;9239;50.932;3.142;2023-03-20T09:06:09;9.73;;;5.10;;
18228;SDS011;9239;50.932;3.142;2023-03-20T09:08:36;10.37;;;4.37;;
18228;SDS011;9239;50.932;3.142;2023-03-20T09:11:03;10.93;;;4.30;;
18228;SDS011;9239;50.932;3.142;2023-03-20T09:13:31;11.20;;;4.37;;
18228;SDS011;9239;50.932;3.142;2023-03-20T09:15:58;6.63;;;4.37;;
18228;SDS011;9239;50.932;3.142;2023-03-20T09:18:25;9.40;;;4.57;;
18228;SDS011;9239;50.932;3.142;2023-03-20T09:20:53;7.17;;;4.33;;
18228;SDS011;9239;50.932;3.142;2023-03-20T09:23:21;10.87;;;4.47;;
18228;SDS011;9239;50.932;3.142;2023-03-20T09:25:48;11.33;;;4.80;;
18228;SDS011;9239;50.932;3.142;2023-03-20T09:28:15;10.73;;;5.00;;
18228;SDS011;9239;50.932;3.142;2023-03-20T09:30:42;11.80;;;4.90;;
18228;SDS011;9239;50.932;3.142;2023-03-20T09:33:09;12.17;;;5.80;;
18228;SDS011;9239;50.932;3.142;2023-03-20T09:35:38;9.17;;;4.53;;
18228;SDS011;9239;50.932;3.142;2023-03-20T09:38:07;17.80;;;5.40;;
18228;SDS011;9239;50.932;3.142;2023-03-20T09:40:36;10.33;;;5.13;;
18228;SDS011;9239;50.932;3.142;2023-03-20T09:43:18;11.37;;;4.70;;
18228;SDS011;9239;50.932;3.142;2023-03-20T09:46:06;10.77;;;5.60;;
18228;SDS011;9239;50.932;3.142;2023-03-20T09:48:39;8.93;;;5.00;;
18228;SDS011;9239;50.932;3.142;2023-03-20T09:51:13;9.10;;;5.47;;
18228;SDS011;9239;50.932;3.142;2023-03-20T09:53:47;10.23;;;5.60;;
18228;SDS011;9239;50.932;3.142;2023-03-20T09:56:20;8.93;;;5.63;;
18228;SDS011;9239;50.932;3.142;2023-03-20T09:58:51;11.50;;;5.53;;
18228;SDS011;9239;50.932;3.142;2023-03-20T10:01:21;10.13;;;5.33;;
18228;SDS011;9239;50.932;3.142;2023-03-20T10:03:52;12.87;;;5.33;;
18228;SDS011;9239;50.932;3.142;2023-03-20T10:06:21;10.60;;;5.40;;
18228;SDS011;9239;50.932;3.142;2023-03-20T10:08:49;13.87;;;5.40;;
18228;SDS011;9239;50.932;3.142;2023-03-20T10:11:23;8.43;;;5.33;;
18228;SDS011;9239;50.932;3.142;2023-03-20T10:14:14;11.17;;;5.20;;
18228;SDS011;9239;50.932;3.142;2023-03-20T10:16:52;11.70;;;5.63;;
18228;SDS011;9239;50.932;3.142;2023-03-20T10:19:29;10.40;;;6.00;;
18228;SDS011;9239;50.932;3.142;2023-03-20T10:21:59;15.97;;;5.97;;
18228;SDS011;9239;50.932;3.142;2023-03-20T10:24:31;8.27;;;5.30;;
18228;SDS011;9239;50.932;3.142;2023-03-20T10:27:01;11.73;;;5.77;;
18228;SDS011;9239;50.932;3.142;2023-03-20T10:29:38;12.00;;;5.10;;
18228;SDS011;9239;50.932;3.142;2023-03-20T10:32:16;12.90;;;5.30;;
18228;SDS011;9239;50.932;3.142;2023-03-20T10:34:51;9.27;;;6.63;;
18228;SDS011;9239;50.932;3.142;2023-03-20T10:37:35;9.43;;;6.20;;
18228;SDS011;9239;50.932;3.142;2023-03-20T10:40:21;11.37;;;6.17;;
18228;SDS011;9239;50.932;3.142;2023-03-20T10:42:51;11.27;;;6.80;;
18228;SDS011;9239;50.932;3.142;2023-03-20T10:45:25;11.53;;;5.83;;
18228;SDS011;9239;50.932;3.142;2023-03-20T10:47:59;15.83;;;6.40;;
18228;SDS011;9239;50.932;3.142;2023-03-20T10:50:31;15.50;;;5.83;;
18228;SDS011;9239;50.932;3.142;2023-03-20T10:53:03;10.83;;;5.80;;
18228;SDS011;9239;50.932;3.142;2023-03-20T10:55:35;14.40;;;6.33;;
18228;SDS011;9239;50.932;3.142;2023-03-20T10:58:07;12.90;;;6.23;;
18228;SDS011;9239;50.932;3.142;2023-03-20T11:00:41;18.00;;;6.17;;
18228;SDS011;9239;50.932;3.142;2023-03-20T11:03:12;11.97;;;5.70;;
18228;SDS011;9239;50.932;3.142;2023-03-20T11:05:45;15.00;;;5.80;;
18228;SDS011;9239;50.932;3.142;2023-03-20T11:08:17;11.10;;;5.67;;
18228;SDS011;9239;50.932;3.142;2023-03-20T11:10:56;14.90;;;6.87;;
18228;SDS011;9239;50.932;3.142;2023-03-20T11:13:24;15.93;;;7.47;;
18228;SDS011;9239;50.932;3.142;2023-03-20T11:15:55;11.57;;;5.97;;
18228;SDS011;9239;50.932;3.142;2023-03-20T11:18:22;11.97;;;6.27;;
18228;SDS011;9239;50.932;3.142;2023-03-20T11:20:51;11.63;;;6.93;;
18228;SDS011;9239;50.932;3.142;2023-03-20T11:23:22;11.87;;;7.33;;
18228;SDS011;9239;50.932;3.142;2023-03-20T11:25:52;13.60;;;6.03;;
18228;SDS011;9239;50.932;3.142;2023-03-20T11:28:25;12.20;;;6.67;;
18228;SDS011;9239;50.932;3.142;2023-03-20T11:30:58;11.03;;;6.43;;
18228;SDS011;9239;50.932;3.142;2023-03-20T11:33:26;17.13;;;6.00;;
18228;SDS011;9239;50.932;3.142;2023-03-20T11:35:55;14.60;;;6.20;;
18228;SDS011;9239;50.932;3.142;2023-03-20T11:38:23;12.87;;;6.10;;
18228;SDS011;9239;50.932;3.142;2023-03-20T11:40:51;14.37;;;6.40;;
18228;SDS011;9239;50.932;3.142;2023-03-20T11:43:20;14.23;;;5.70;;
18228;SDS011;9239;50.932;3.142;2023-03-20T11:45:48;16.47;;;7.37;;
18228;SDS011;9239;50.932;3.142;2023-03-20T11:48:20;11.77;;;5.80;;
18228;SDS011;9239;50.932;3.142;2023-03-20T11:50:50;14.03;;;5.53;;
18228;SDS011;9239;50.932;3.142;2023-03-20T11:53:22;11.10;;;4.90;;
18228;SDS011;9239;50.932;3.142;2023-03-20T11:55:59;13.87;;;5.37;;
18228;SDS011;9239;50.932;3.142;2023-03-20T11:58:30;11.70;;;5.67;;
18228;SDS011;9239;50.932;3.142;2023-03-20T12:00:58;10.47;;;5.97;;
18228;SDS011;9239;50.932;3.142;2023-03-20T12:03:35;11.87;;;5.43;;
18228;SDS011;9239;50.932;3.142;2023-03-20T12:06:06;11.40;;;4.90;;
18228;SDS011;9239;50.932;3.142;2023-03-20T12:08:38;14.37;;;5.27;;
18228;SDS011;9239;50.932;3.142;2023-03-20T12:11:07;11.13;;;5.30;;
18228;SDS011;9239;50.932;3.142;2023-03-20T12:14:01;12.30;;;6.13;;
18228;SDS011;9239;50.932;3.142;2023-03-20T12:16:30;15.37;;;5.57;;
18228;SDS011;9239;50.932;3.142;2023-03-20T12:19:00;11.47;;;5.50;;
18228;SDS011;9239;50.932;3.142;2023-03-20T12:21:32;12.53;;;4.93;;
18228;SDS011;9239;50.932;3.142;2023-03-20T12:24:07;9.80;;;4.90;;
18228;SDS011;9239;50.932;3.142;2023-03-20T12:26:41;14.50;;;5.17;;
18228;SDS011;9239;50.932;3.142;2023-03-20T12:29:17;15.53;;;4.80;;
18228;SDS011;9239;50.932;3.142;2023-03-20T12:31:50;6.83;;;3.23;;
18228;SDS011;9239;50.932;3.142;2023-03-20T12:34:23;9.23;;;3.30;;
18228;SDS011;9239;50.932;3.142;2023-03-20T12:36:53;9.00;;;3.30;;
18228;SDS011;9239;50.932;3.142;2023-03-20T12:39:22;8.73;;;3.30;;
18228;SDS011;9239;50.932;3.142;2023-03-20T12:41:57;11.27;;;3.60;;
18228;SDS011;9239;50.932;3.142;2023-03-20T12:44:37;5.97;;;2.60;;
18228;SDS011;9239;50.932;3.142;2023-03-20T12:47:13;5.37;;;2.37;;
18228;SDS011;9239;50.932;3.142;2023-03-20T12:49:59;6.37;;;2.67;;
18228;SDS011;9239;50.932;3.142;2023-03-20T12:52:35;8.70;;;3.50;;
18228;SDS011;9239;50.932;3.142;2023-03-20T12:55:15;8.70;;;2.83;;
18228;SDS011;9239;50.932;3.142;2023-03-20T12:58:05;6.73;;;2.97;;
18228;SDS011;9239;50.932;3.142;2023-03-20T13:00:46;7.03;;;3.10;;
18228;SDS011;9239;50.932;3.142;2023-03-20T13:03:33;11.30;;;3.90;;
18228;SDS011;9239;50.932;3.142;2023-03-20T13:06:09;6.10;;;2.73;;
18228;SDS011;9239;50.932;3.142;2023-03-20T13:08:43;7.17;;;2.60;;
18228;SDS011;9239;50.932;3.142;2023-03-20T13:11:30;7.53;;;2.70;;
18228;SDS011;9239;50.932;3.142;2023-03-20T13:14:03;12.73;;;3.10;;
18228;SDS011;9239;50.932;3.142;2023-03-20T13:16:41;5.70;;;2.60;;
18228;SDS011;9239;50.932;3.142;2023-03-20T13:19:20;8.33;;;3.20;;
18228;SDS011;9239;50.932;3.142;2023-03-20T13:21:55;48.47;;;9.00;;
18228;SDS011;9239;50.932;3.142;2023-03-20T13:24:31;9.83;;;3.27;;
18228;SDS011;9239;50.932;3.142;2023-03-20T13:27:07;9.37;;;3.67;;
18228;SDS011;9239;50.932;3.142;2023-03-20T13:29:41;9.83;;;3.40;;
18228;SDS011;9239;50.932;3.142;2023-03-20T13:32:16;12.20;;;3.47;;
18228;SDS011;9239;50.932;3.142;2023-03-20T13:34:57;9.00;;;3.57;;
18228;SDS011;9239;50.932;3.142;2023-03-20T13:37:33;8.77;;;3.60;;
18228;SDS011;9239;50.932;3.142;2023-03-20T13:40:05;7.27;;;2.57;;
18228;SDS011;9239;50.932;3.142;2023-03-20T13:42:41;8.40;;;2.67;;
18228;SDS011;9239;50.932;3.142;2023-03-20T13:48:04;4.75;;;2.05;;
18228;SDS011;9239;50.932;3.142;2023-03-20T13:50:42;4.60;;;1.77;;
18228;SDS011;9239;50.932;3.142;2023-03-20T13:53:18;4.57;;;1.80;;
18228;SDS011;9239;50.932;3.142;2023-03-20T13:55:54;6.43;;;2.00;;
18228;SDS011;9239;50.932;3.142;2023-03-20T14:01:37;5.47;;;1.70;;
18228;SDS011;9239;50.932;3.142;2023-03-20T14:04:13;3.15;;;1.70;;
18228;SDS011;9239;50.932;3.142;2023-03-20T14:06:48;4.15;;;2.25;;
18228;SDS011;9239;50.932;3.142;2023-03-20T14:09:24;6.60;;;1.80;;
18228;SDS011;9239;50.932;3.142;2023-03-20T14:11:53;8.17;;;1.70;;
18228;SDS011;9239;50.932;3.142;2023-03-20T14:14:24;5.20;;;1.63;;
18228;SDS011;9239;50.932;3.142;2023-03-20T14:19:42;7.03;;;2.33;;
18228;SDS011;9239;50.932;3.142;2023-03-20T14:22:13;5.32;;;2.45;;
18228;SDS011;9239;50.932;3.142;2023-03-20T14:24:44;7.97;;;2.22;;
18228;SDS011;9239;50.932;3.142;2023-03-20T14:27:19;6.73;;;2.60;;
18228;SDS011;9239;50.932;3.142;2023-03-20T14:29:49;5.70;;;2.83;;
18228;SDS011;9239;50.932;3.142;2023-03-20T14:32:29;7.18;;;2.45;;
18228;SDS011;9239;50.932;3.142;2023-03-20T14:35:01;8.93;;;2.93;;
18228;SDS011;9239;50.932;3.142;2023-03-20T14:37:59;6.10;;;2.90;;
18228;SDS011;9239;50.932;3.142;2023-03-20T14:40:35;3.37;;;2.13;;
18228;SDS011;9239;50.932;3.142;2023-03-20T14:43:13;6.47;;;2.13;;
18228;SDS011;9239;50.932;3.142;2023-03-20T14:45:45;4.70;;;2.40;;
18228;SDS011;9239;50.932;3.142;2023-03-20T14:48:24;6.37;;;2.70;;
18228;SDS011;9239;50.932;3.142;2023-03-20T14:51:10;8.57;;;3.50;;
18228;SDS011;9239;50.932;3.142;2023-03-20T14:53:48;4.57;;;2.30;;
18228;SDS011;9239;50.932;3.142;2023-03-20T14:56:24;13.87;;;2.97;;
18228;SDS011;9239;50.932;3.142;2023-03-20T14:58:55;5.83;;;2.43;;
18228;SDS011;9239;50.932;3.142;2023-03-20T15:04:27;5.93;;;2.50;;
18228;SDS011;9239;50.932;3.142;2023-03-20T15:07:00;6.33;;;2.30;;
18228;SDS011;9239;50.932;3.142;2023-03-20T15:09:30;6.17;;;2.83;;
18228;SDS011;9239;50.932;3.142;2023-03-20T15:12:00;9.37;;;2.30;;
18228;SDS011;9239;50.932;3.142;2023-03-20T15:14:34;5.17;;;2.40;;
18228;SDS011;9239;50.932;3.142;2023-03-20T15:17:05;6.17;;;2.30;;
18228;SDS011;9239;50.932;3.142;2023-03-20T15:19:42;5.93;;;2.37;;
18228;SDS011;9239;50.932;3.142;2023-03-20T15:22:13;6.17;;;2.13;;
18228;SDS011;9239;50.932;3.142;2023-03-20T15:24:41;6.97;;;2.67;;
18228;SDS011;9239;50.932;3.142;2023-03-20T15:27:17;11.03;;;2.13;;
18228;SDS011;9239;50.932;3.142;2023-03-20T15:29:45;4.03;;;2.30;;